Atomic City, Idaho
Current Conditions -  °F | °C
As of 2:53 PM on Monday 20 Oct 2014 (Local Time) from KIDA Reporting Station
Broken Clouds Broken Clouds  
Wind Chill: 71°   Ceiling: 11000
Heat Index: 71°   Visibility: 10mi
Dew Point: 37°   Wind: 5mph
Humidity: 29%   Direction: 250°WSW
Pressure: 29.97"   Gusts: NA
Location:  43.44°N, 112.81°W
Report Text: KIDA 202053Z 25004KT 10SM BKN110 22/03 A2997 RMK AO2 SLP130 VIRGA NE-SE FU ALQDS T02170028 58022
Loading
Personal Weather Stations






























Interactive Weather Map
Tropical Storm Tracking
New forecast layout! Learn more

10-Day Weather Forecast

Advertisements
Track Severe Weather on mobile